sensor_id;sensor_type;location;lat;lon;timestamp;temperature;humidity
6377;DHT22;3221;48.858;10.128;2023-06-22T00:01:18;20.40;99.90
6377;DHT22;3221;48.858;10.128;2023-06-22T00:03:45;20.30;99.90
6377;DHT22;3221;48.858;10.128;2023-06-22T00:06:12;20.20;99.90
6377;DHT22;3221;48.858;10.128;2023-06-22T00:08:40;20.00;99.90
6377;DHT22;3221;48.858;10.128;2023-06-22T00:11:07;19.80;99.90
6377;DHT22;3221;48.858;10.128;2023-06-22T00:13:34;19.90;99.90
6377;DHT22;3221;48.858;10.128;2023-06-22T00:16:01;20.00;99.90
6377;DHT22;3221;48.858;10.128;2023-06-22T00:18:27;20.10;99.90
6377;DHT22;3221;48.858;10.128;2023-06-22T00:20:58;20.10;99.90
6377;DHT22;3221;48.858;10.128;2023-06-22T00:23:26;20.20;99.90
6377;DHT22;3221;48.858;10.128;2023-06-22T00:25:53;20.20;99.90
6377;DHT22;3221;48.858;10.128;2023-06-22T00:28:20;20.20;99.90
6377;DHT22;3221;48.858;10.128;2023-06-22T00:30:48;20.20;99.90
6377;DHT22;3221;48.858;10.128;2023-06-22T00:33:16;20.20;99.90
6377;DHT22;3221;48.858;10.128;2023-06-22T00:35:43;20.10;99.90
6377;DHT22;3221;48.858;10.128;2023-06-22T00:38:11;20.00;99.90
6377;DHT22;3221;48.858;10.128;2023-06-22T00:40:38;20.00;99.90
6377;DHT22;3221;48.858;10.128;2023-06-22T00:43:05;20.20;99.90
6377;DHT22;3221;48.858;10.128;2023-06-22T00:45:32;20.20;99.90
6377;DHT22;3221;48.858;10.128;2023-06-22T00:48:00;20.20;99.90
6377;DHT22;3221;48.858;10.128;2023-06-22T00:50:29;20.50;99.90
6377;DHT22;3221;48.858;10.128;2023-06-22T00:53:05;20.60;99.90
6377;DHT22;3221;48.858;10.128;2023-06-22T00:55:41;20.60;99.90
6377;DHT22;3221;48.858;10.128;2023-06-22T00:58:11;20.60;99.90
6377;DHT22;3221;48.858;10.128;2023-06-22T01:00:39;20.50;99.90
6377;DHT22;3221;48.858;10.128;2023-06-22T01:03:07;20.30;99.90
6377;DHT22;3221;48.858;10.128;2023-06-22T01:05:39;20.40;99.90
6377;DHT22;3221;48.858;10.128;2023-06-22T01:08:21;20.40;99.90
6377;DHT22;3221;48.858;10.128;2023-06-22T01:13:41;20.40;99.90
6377;DHT22;3221;48.858;10.128;2023-06-22T01:16:19;20.40;99.90
6377;DHT22;3221;48.858;10.128;2023-06-22T01:18:48;20.40;99.90
6377;DHT22;3221;48.858;10.128;2023-06-22T01:21:19;20.40;99.90
6377;DHT22;3221;48.858;10.128;2023-06-22T01:29:17;20.20;99.90
6377;DHT22;3221;48.858;10.128;2023-06-22T01:31:48;20.20;99.90
6377;DHT22;3221;48.858;10.128;2023-06-22T01:34:16;20.10;99.90
6377;DHT22;3221;48.858;10.128;2023-06-22T01:36:44;20.10;99.90
6377;DHT22;3221;48.858;10.128;2023-06-22T01:39:12;20.30;99.90
6377;DHT22;3221;48.858;10.128;2023-06-22T01:41:40;20.10;99.90
6377;DHT22;3221;48.858;10.128;2023-06-22T01:44:09;20.10;99.90
6377;DHT22;3221;48.858;10.128;2023-06-22T01:46:37;20.10;99.90
6377;DHT22;3221;48.858;10.128;2023-06-22T01:49:06;20.10;99.90
6377;DHT22;3221;48.858;10.128;2023-06-22T01:51:35;20.10;99.90
6377;DHT22;3221;48.858;10.128;2023-06-22T01:54:02;20.30;99.90
6377;DHT22;3221;48.858;10.128;2023-06-22T01:56:29;20.30;99.90
6377;DHT22;3221;48.858;10.128;2023-06-22T01:59:22;20.40;99.90
6377;DHT22;3221;48.858;10.128;2023-06-22T02:02:02;20.20;99.90
6377;DHT22;3221;48.858;10.128;2023-06-22T02:04:38;20.10;99.90
6377;DHT22;3221;48.858;10.128;2023-06-22T02:07:10;20.00;99.90
6377;DHT22;3221;48.858;10.128;2023-06-22T02:09:42;19.90;99.90
6377;DHT22;3221;48.858;10.128;2023-06-22T02:12:12;19.80;99.90
6377;DHT22;3221;48.858;10.128;2023-06-22T02:14:40;19.80;99.90
6377;DHT22;3221;48.858;10.128;2023-06-22T02:17:09;19.80;99.90
6377;DHT22;3221;48.858;10.128;2023-06-22T02:19:37;19.70;99.90
6377;DHT22;3221;48.858;10.128;2023-06-22T02:22:04;19.70;99.90
6377;DHT22;3221;48.858;10.128;2023-06-22T02:24:31;19.70;99.90
6377;DHT22;3221;48.858;10.128;2023-06-22T02:26:59;19.60;99.90
6377;DHT22;3221;48.858;10.128;2023-06-22T02:29:27;19.60;99.90
6377;DHT22;3221;48.858;10.128;2023-06-22T02:31:54;19.70;99.90
6377;DHT22;3221;48.858;10.128;2023-06-22T02:34:22;19.70;99.90
6377;DHT22;3221;48.858;10.128;2023-06-22T02:36:50;19.70;99.90
6377;DHT22;3221;48.858;10.128;2023-06-22T02:39:23;19.60;99.90
6377;DHT22;3221;48.858;10.128;2023-06-22T02:41:54;19.60;99.90
6377;DHT22;3221;48.858;10.128;2023-06-22T02:44:22;19.60;99.90
6377;DHT22;3221;48.858;10.128;2023-06-22T02:46:49;19.80;99.90
6377;DHT22;3221;48.858;10.128;2023-06-22T02:49:16;19.80;99.90
6377;DHT22;3221;48.858;10.128;2023-06-22T02:51:47;20.00;99.90
6377;DHT22;3221;48.858;10.128;2023-06-22T02:54:17;20.00;99.90
6377;DHT22;3221;48.858;10.128;2023-06-22T02:56:46;20.10;99.90
6377;DHT22;3221;48.858;10.128;2023-06-22T02:59:14;20.00;99.90
6377;DHT22;3221;48.858;10.128;2023-06-22T03:01:42;19.80;99.90
6377;DHT22;3221;48.858;10.128;2023-06-22T03:04:18;19.70;99.90
6377;DHT22;3221;48.858;10.128;2023-06-22T03:06:45;19.60;99.90
6377;DHT22;3221;48.858;10.128;2023-06-22T03:09:18;19.80;99.90
6377;DHT22;3221;48.858;10.128;2023-06-22T03:11:45;19.80;99.90
6377;DHT22;3221;48.858;10.128;2023-06-22T03:14:12;20.00;99.90
6377;DHT22;3221;48.858;10.128;2023-06-22T03:16:39;20.10;99.90
6377;DHT22;3221;48.858;10.128;2023-06-22T03:19:07;20.10;99.90
6377;DHT22;3221;48.858;10.128;2023-06-22T03:21:34;20.00;99.90
6377;DHT22;3221;48.858;10.128;2023-06-22T03:24:01;19.80;99.90
6377;DHT22;3221;48.858;10.128;2023-06-22T03:26:28;19.90;99.90
6377;DHT22;3221;48.858;10.128;2023-06-22T03:28:56;19.80;99.90
6377;DHT22;3221;48.858;10.128;2023-06-22T03:31:23;19.80;99.90
6377;DHT22;3221;48.858;10.128;2023-06-22T03:33:52;19.90;99.90
6377;DHT22;3221;48.858;10.128;2023-06-22T03:36:19;20.00;99.90
6377;DHT22;3221;48.858;10.128;2023-06-22T03:38:47;20.00;99.90
6377;DHT22;3221;48.858;10.128;2023-06-22T03:41:14;19.90;99.90
6377;DHT22;3221;48.858;10.128;2023-06-22T03:43:41;19.80;99.90
6377;DHT22;3221;48.858;10.128;2023-06-22T03:46:09;19.80;99.90
6377;DHT22;3221;48.858;10.128;2023-06-22T03:48:37;19.70;99.90
6377;DHT22;3221;48.858;10.128;2023-06-22T03:51:04;19.80;99.90
6377;DHT22;3221;48.858;10.128;2023-06-22T03:53:31;19.80;99.90
6377;DHT22;3221;48.858;10.128;2023-06-22T03:55:58;19.70;99.90
6377;DHT22;3221;48.858;10.128;2023-06-22T03:58:24;19.80;99.90
6377;DHT22;3221;48.858;10.128;2023-06-22T04:00:52;19.80;99.90
6377;DHT22;3221;48.858;10.128;2023-06-22T04:03:20;19.70;99.90
6377;DHT22;3221;48.858;10.128;2023-06-22T04:05:47;19.80;99.90
6377;DHT22;3221;48.858;10.128;2023-06-22T04:08:15;19.80;99.90
6377;DHT22;3221;48.858;10.128;2023-06-22T04:10:43;19.90;99.90
6377;DHT22;3221;48.858;10.128;2023-06-22T04:13:10;19.90;99.90
6377;DHT22;3221;48.858;10.128;2023-06-22T04:15:37;19.80;99.90
6377;DHT22;3221;48.858;10.128;2023-06-22T04:18:04;19.80;99.90
6377;DHT22;3221;48.858;10.128;2023-06-22T04:20:31;19.90;99.90
6377;DHT22;3221;48.858;10.128;2023-06-22T04:22:59;19.80;99.90
6377;DHT22;3221;48.858;10.128;2023-06-22T04:25:26;19.70;99.90
6377;DHT22;3221;48.858;10.128;2023-06-22T04:27:53;19.70;99.90
6377;DHT22;3221;48.858;10.128;2023-06-22T04:30:20;19.80;99.90
6377;DHT22;3221;48.858;10.128;2023-06-22T04:32:47;19.90;99.90
6377;DHT22;3221;48.858;10.128;2023-06-22T04:35:25;19.90;99.90
6377;DHT22;3221;48.858;10.128;2023-06-22T04:37:53;19.90;99.90
6377;DHT22;3221;48.858;10.128;2023-06-22T04:40:22;19.90;99.90
6377;DHT22;3221;48.858;10.128;2023-06-22T04:42:49;19.90;99.90
6377;DHT22;3221;48.858;10.128;2023-06-22T04:45:20;19.90;99.90
6377;DHT22;3221;48.858;10.128;2023-06-22T04:47:47;19.80;99.90
6377;DHT22;3221;48.858;10.128;2023-06-22T04:50:15;19.80;99.90
6377;DHT22;3221;48.858;10.128;2023-06-22T04:52:42;19.80;99.90
6377;DHT22;3221;48.858;10.128;2023-06-22T04:55:09;19.80;99.90
6377;DHT22;3221;48.858;10.128;2023-06-22T04:57:36;19.70;99.90
6377;DHT22;3221;48.858;10.128;2023-06-22T05:00:06;19.80;99.90
6377;DHT22;3221;48.858;10.128;2023-06-22T05:02:40;19.80;99.90
6377;DHT22;3221;48.858;10.128;2023-06-22T05:05:08;19.80;99.90
6377;DHT22;3221;48.858;10.128;2023-06-22T05:07:36;19.80;99.90
6377;DHT22;3221;48.858;10.128;2023-06-22T05:10:03;19.90;99.90
6377;DHT22;3221;48.858;10.128;2023-06-22T05:12:30;19.80;99.90
6377;DHT22;3221;48.858;10.128;2023-06-22T05:14:57;19.80;99.90
6377;DHT22;3221;48.858;10.128;2023-06-22T05:17:25;19.70;99.90
6377;DHT22;3221;48.858;10.128;2023-06-22T05:19:52;19.60;99.90
6377;DHT22;3221;48.858;10.128;2023-06-22T05:22:19;19.70;99.90
6377;DHT22;3221;48.858;10.128;2023-06-22T05:24:46;19.80;99.90
6377;DHT22;3221;48.858;10.128;2023-06-22T05:27:30;19.70;99.90
6377;DHT22;3221;48.858;10.128;2023-06-22T05:30:14;19.80;99.90
6377;DHT22;3221;48.858;10.128;2023-06-22T05:33:00;19.80;99.90
6377;DHT22;3221;48.858;10.128;2023-06-22T05:35:39;19.80;99.90
6377;DHT22;3221;48.858;10.128;2023-06-22T05:38:06;19.80;99.90
6377;DHT22;3221;48.858;10.128;2023-06-22T05:40:33;19.90;99.90
6377;DHT22;3221;48.858;10.128;2023-06-22T05:42:59;19.90;99.90
6377;DHT22;3221;48.858;10.128;2023-06-22T05:45:28;19.90;99.90
6377;DHT22;3221;48.858;10.128;2023-06-22T05:47:55;19.90;99.90
6377;DHT22;3221;48.858;10.128;2023-06-22T05:50:22;19.90;99.90
6377;DHT22;3221;48.858;10.128;2023-06-22T05:52:48;19.90;99.90
6377;DHT22;3221;48.858;10.128;2023-06-22T05:55:15;19.90;99.90
6377;DHT22;3221;48.858;10.128;2023-06-22T05:57:45;20.00;99.90
6377;DHT22;3221;48.858;10.128;2023-06-22T06:00:12;20.00;99.90
6377;DHT22;3221;48.858;10.128;2023-06-22T06:02:40;20.00;99.90
6377;DHT22;3221;48.858;10.128;2023-06-22T06:05:14;20.10;99.90
6377;DHT22;3221;48.858;10.128;2023-06-22T06:07:41;20.10;99.90
6377;DHT22;3221;48.858;10.128;2023-06-22T06:10:09;20.20;99.90
6377;DHT22;3221;48.858;10.128;2023-06-22T06:12:36;20.20;99.90
6377;DHT22;3221;48.858;10.128;2023-06-22T06:15:04;20.30;99.90
6377;DHT22;3221;48.858;10.128;2023-06-22T06:17:31;20.30;99.90
6377;DHT22;3221;48.858;10.128;2023-06-22T06:20:01;20.40;99.90
6377;DHT22;3221;48.858;10.128;2023-06-22T06:22:28;20.40;99.90
6377;DHT22;3221;48.858;10.128;2023-06-22T06:24:54;20.50;99.90
6377;DHT22;3221;48.858;10.128;2023-06-22T06:27:21;20.50;99.90
6377;DHT22;3221;48.858;10.128;2023-06-22T06:29:56;20.60;99.90
6377;DHT22;3221;48.858;10.128;2023-06-22T06:32:23;20.60;99.90
6377;DHT22;3221;48.858;10.128;2023-06-22T06:34:50;20.60;99.90
6377;DHT22;3221;48.858;10.128;2023-06-22T06:37:17;20.60;99.90
6377;DHT22;3221;48.858;10.128;2023-06-22T06:39:45;20.70;99.90
6377;DHT22;3221;48.858;10.128;2023-06-22T06:42:12;20.70;99.90
6377;DHT22;3221;48.858;10.128;2023-06-22T06:44:39;20.70;99.90
6377;DHT22;3221;48.858;10.128;2023-06-22T06:47:06;20.70;99.90
6377;DHT22;3221;48.858;10.128;2023-06-22T06:49:33;20.80;99.90
6377;DHT22;3221;48.858;10.128;2023-06-22T06:52:00;20.80;99.90
6377;DHT22;3221;48.858;10.128;2023-06-22T06:54:26;20.80;99.90
6377;DHT22;3221;48.858;10.128;2023-06-22T06:56:54;20.90;99.90
6377;DHT22;3221;48.858;10.128;2023-06-22T06:59:21;21.00;99.90
6377;DHT22;3221;48.858;10.128;2023-06-22T07:01:47;21.00;99.90
6377;DHT22;3221;48.858;10.128;2023-06-22T07:04:15;21.10;99.90
6377;DHT22;3221;48.858;10.128;2023-06-22T07:06:42;21.10;99.90
6377;DHT22;3221;48.858;10.128;2023-06-22T07:09:09;21.10;99.90
6377;DHT22;3221;48.858;10.128;2023-06-22T07:11:36;21.20;99.90
6377;DHT22;3221;48.858;10.128;2023-06-22T07:14:03;21.30;99.90
6377;DHT22;3221;48.858;10.128;2023-06-22T07:16:30;21.30;99.90
6377;DHT22;3221;48.858;10.128;2023-06-22T07:18:58;21.30;99.90
6377;DHT22;3221;48.858;10.128;2023-06-22T07:21:24;21.30;99.90
6377;DHT22;3221;48.858;10.128;2023-06-22T07:23:51;21.30;99.90
6377;DHT22;3221;48.858;10.128;2023-06-22T07:26:18;21.40;99.90
6377;DHT22;3221;48.858;10.128;2023-06-22T07:28:45;21.50;99.90
6377;DHT22;3221;48.858;10.128;2023-06-22T07:31:12;21.50;99.90
6377;DHT22;3221;48.858;10.128;2023-06-22T07:33:38;21.60;99.90
6377;DHT22;3221;48.858;10.128;2023-06-22T07:36:05;21.70;99.90
6377;DHT22;3221;48.858;10.128;2023-06-22T07:38:34;21.70;99.90
6377;DHT22;3221;48.858;10.128;2023-06-22T07:41:02;21.70;99.90
6377;DHT22;3221;48.858;10.128;2023-06-22T07:43:32;21.90;99.90
6377;DHT22;3221;48.858;10.128;2023-06-22T07:46:01;21.90;99.90
6377;DHT22;3221;48.858;10.128;2023-06-22T07:48:27;21.90;99.90
6377;DHT22;3221;48.858;10.128;2023-06-22T07:50:55;22.00;99.90
6377;DHT22;3221;48.858;10.128;2023-06-22T07:53:22;22.00;99.90
6377;DHT22;3221;48.858;10.128;2023-06-22T07:55:50;22.10;99.90
6377;DHT22;3221;48.858;10.128;2023-06-22T07:58:17;22.20;99.90
6377;DHT22;3221;48.858;10.128;2023-06-22T08:00:46;22.20;99.90
6377;DHT22;3221;48.858;10.128;2023-06-22T08:03:13;22.30;99.90
6377;DHT22;3221;48.858;10.128;2023-06-22T08:05:40;22.30;99.90
6377;DHT22;3221;48.858;10.128;2023-06-22T08:08:07;22.40;99.90
6377;DHT22;3221;48.858;10.128;2023-06-22T08:10:34;22.50;99.90
6377;DHT22;3221;48.858;10.128;2023-06-22T08:13:01;22.50;99.90
6377;DHT22;3221;48.858;10.128;2023-06-22T08:15:27;22.50;99.90
6377;DHT22;3221;48.858;10.128;2023-06-22T08:17:55;22.60;99.90
6377;DHT22;3221;48.858;10.128;2023-06-22T08:20:22;22.70;99.90
6377;DHT22;3221;48.858;10.128;2023-06-22T08:22:49;22.70;99.90
6377;DHT22;3221;48.858;10.128;2023-06-22T08:25:16;22.70;99.90
6377;DHT22;3221;48.858;10.128;2023-06-22T08:27:46;22.90;99.90
6377;DHT22;3221;48.858;10.128;2023-06-22T08:30:15;23.00;99.90
6377;DHT22;3221;48.858;10.128;2023-06-22T08:32:42;23.00;99.90
6377;DHT22;3221;48.858;10.128;2023-06-22T08:35:09;23.20;99.90
6377;DHT22;3221;48.858;10.128;2023-06-22T08:37:36;23.20;99.90
6377;DHT22;3221;48.858;10.128;2023-06-22T08:40:07;23.30;99.90
6377;DHT22;3221;48.858;10.128;2023-06-22T08:42:36;23.40;99.90
6377;DHT22;3221;48.858;10.128;2023-06-22T08:45:04;23.50;99.90
6377;DHT22;3221;48.858;10.128;2023-06-22T08:47:32;23.60;99.90
6377;DHT22;3221;48.858;10.128;2023-06-22T08:49:59;23.70;99.90
6377;DHT22;3221;48.858;10.128;2023-06-22T08:52:26;23.70;99.90
6377;DHT22;3221;48.858;10.128;2023-06-22T08:54:53;23.80;99.90
6377;DHT22;3221;48.858;10.128;2023-06-22T08:57:21;23.80;99.90
6377;DHT22;3221;48.858;10.128;2023-06-22T08:59:47;23.90;99.90
6377;DHT22;3221;48.858;10.128;2023-06-22T09:02:14;24.00;99.90
6377;DHT22;3221;48.858;10.128;2023-06-22T09:04:41;24.10;99.90
6377;DHT22;3221;48.858;10.128;2023-06-22T09:07:08;24.10;99.90
6377;DHT22;3221;48.858;10.128;2023-06-22T09:09:35;24.20;99.90
6377;DHT22;3221;48.858;10.128;2023-06-22T09:12:02;24.20;99.90
6377;DHT22;3221;48.858;10.128;2023-06-22T09:14:29;24.20;99.90
6377;DHT22;3221;48.858;10.128;2023-06-22T09:16:56;24.20;99.90
6377;DHT22;3221;48.858;10.128;2023-06-22T09:19:23;24.20;99.90
6377;DHT22;3221;48.858;10.128;2023-06-22T09:21:52;24.40;99.90
6377;DHT22;3221;48.858;10.128;2023-06-22T09:24:19;24.40;99.90
6377;DHT22;3221;48.858;10.128;2023-06-22T09:26:46;24.40;99.90
6377;DHT22;3221;48.858;10.128;2023-06-22T09:29:13;24.50;99.90
6377;DHT22;3221;48.858;10.128;2023-06-22T09:31:40;24.50;99.90
6377;DHT22;3221;48.858;10.128;2023-06-22T09:34:07;24.60;99.90
6377;DHT22;3221;48.858;10.128;2023-06-22T09:36:34;24.60;99.90
6377;DHT22;3221;48.858;10.128;2023-06-22T09:39:01;24.70;99.90
6377;DHT22;3221;48.858;10.128;2023-06-22T09:41:32;24.70;99.90
6377;DHT22;3221;48.858;10.128;2023-06-22T09:43:59;24.70;99.90
6377;DHT22;3221;48.858;10.128;2023-06-22T09:46:26;24.60;99.90
6377;DHT22;3221;48.858;10.128;2023-06-22T09:48:53;24.70;99.90
6377;DHT22;3221;48.858;10.128;2023-06-22T09:51:20;24.70;99.90
6377;DHT22;3221;48.858;10.128;2023-06-22T09:53:48;24.80;99.90
6377;DHT22;3221;48.858;10.128;2023-06-22T09:56:15;24.80;99.90
6377;DHT22;3221;48.858;10.128;2023-06-22T09:58:43;25.10;99.90
6377;DHT22;3221;48.858;10.128;2023-06-22T10:01:10;25.10;99.90
6377;DHT22;3221;48.858;10.128;2023-06-22T10:03:37;25.10;99.90
6377;DHT22;3221;48.858;10.128;2023-06-22T10:06:04;25.20;99.90
6377;DHT22;3221;48.858;10.128;2023-06-22T10:08:31;25.30;99.90
6377;DHT22;3221;48.858;10.128;2023-06-22T10:10:58;25.30;99.90
6377;DHT22;3221;48.858;10.128;2023-06-22T10:13:25;25.30;99.90
6377;DHT22;3221;48.858;10.128;2023-06-22T10:15:52;25.20;99.90
6377;DHT22;3221;48.858;10.128;2023-06-22T10:18:19;25.30;99.90
6377;DHT22;3221;48.858;10.128;2023-06-22T10:20:50;25.30;99.90
6377;DHT22;3221;48.858;10.128;2023-06-22T10:23:20;25.50;99.90
6377;DHT22;3221;48.858;10.128;2023-06-22T10:25:47;25.50;99.90
6377;DHT22;3221;48.858;10.128;2023-06-22T10:28:14;25.60;99.90
6377;DHT22;3221;48.858;10.128;2023-06-22T10:30:41;25.70;99.90
6377;DHT22;3221;48.858;10.128;2023-06-22T10:33:09;25.70;99.90
6377;DHT22;3221;48.858;10.128;2023-06-22T10:35:37;25.70;99.90
6377;DHT22;3221;48.858;10.128;2023-06-22T10:38:04;25.80;99.90
6377;DHT22;3221;48.858;10.128;2023-06-22T10:40:32;25.80;99.90
6377;DHT22;3221;48.858;10.128;2023-06-22T10:42:59;26.00;99.90
6377;DHT22;3221;48.858;10.128;2023-06-22T10:45:25;26.20;99.90
6377;DHT22;3221;48.858;10.128;2023-06-22T10:47:54;26.30;99.90
6377;DHT22;3221;48.858;10.128;2023-06-22T10:50:21;26.40;99.90
6377;DHT22;3221;48.858;10.128;2023-06-22T10:52:50;26.50;99.90
6377;DHT22;3221;48.858;10.128;2023-06-22T10:55:17;26.50;99.90
6377;DHT22;3221;48.858;10.128;2023-06-22T10:57:44;26.60;99.90
6377;DHT22;3221;48.858;10.128;2023-06-22T11:00:15;26.70;99.90
6377;DHT22;3221;48.858;10.128;2023-06-22T11:02:43;26.70;99.90
6377;DHT22;3221;48.858;10.128;2023-06-22T11:05:10;26.80;99.90
6377;DHT22;3221;48.858;10.128;2023-06-22T11:07:41;26.80;99.90
6377;DHT22;3221;48.858;10.128;2023-06-22T11:10:08;26.80;99.90
6377;DHT22;3221;48.858;10.128;2023-06-22T11:12:35;26.90;99.90
6377;DHT22;3221;48.858;10.128;2023-06-22T11:15:02;26.90;99.90
6377;DHT22;3221;48.858;10.128;2023-06-22T11:17:29;27.00;99.90
6377;DHT22;3221;48.858;10.128;2023-06-22T11:19:56;26.90;99.90
6377;DHT22;3221;48.858;10.128;2023-06-22T11:22:22;26.90;99.90
6377;DHT22;3221;48.858;10.128;2023-06-22T11:24:49;27.10;99.90
6377;DHT22;3221;48.858;10.128;2023-06-22T11:27:16;27.20;99.90
6377;DHT22;3221;48.858;10.128;2023-06-22T11:29:43;27.20;99.90
6377;DHT22;3221;48.858;10.128;2023-06-22T11:32:10;27.30;99.90
6377;DHT22;3221;48.858;10.128;2023-06-22T11:34:40;27.30;99.90
6377;DHT22;3221;48.858;10.128;2023-06-22T11:37:07;27.30;99.90
6377;DHT22;3221;48.858;10.128;2023-06-22T11:39:33;27.30;99.90
6377;DHT22;3221;48.858;10.128;2023-06-22T11:42:13;27.30;99.90
6377;DHT22;3221;48.858;10.128;2023-06-22T11:44:41;27.30;99.90
6377;DHT22;3221;48.858;10.128;2023-06-22T11:47:08;27.20;99.90
6377;DHT22;3221;48.858;10.128;2023-06-22T11:49:35;27.30;99.90
6377;DHT22;3221;48.858;10.128;2023-06-22T11:52:02;27.40;99.90
6377;DHT22;3221;48.858;10.128;2023-06-22T11:54:29;27.30;99.90
6377;DHT22;3221;48.858;10.128;2023-06-22T11:56:56;27.40;99.90
6377;DHT22;3221;48.858;10.128;2023-06-22T11:59:23;27.50;99.90
6377;DHT22;3221;48.858;10.128;2023-06-22T12:01:49;27.60;99.90
6377;DHT22;3221;48.858;10.128;2023-06-22T12:04:19;27.60;99.90
6377;DHT22;3221;48.858;10.128;2023-06-22T12:06:46;27.70;99.70
6377;DHT22;3221;48.858;10.128;2023-06-22T12:09:13;27.70;99.90
6377;DHT22;3221;48.858;10.128;2023-06-22T12:11:40;27.70;99.70
6377;DHT22;3221;48.858;10.128;2023-06-22T12:14:07;27.60;99.90
6377;DHT22;3221;48.858;10.128;2023-06-22T12:16:34;27.70;99.90
6377;DHT22;3221;48.858;10.128;2023-06-22T12:19:01;27.80;99.80
6377;DHT22;3221;48.858;10.128;2023-06-22T12:21:28;27.80;99.90
6377;DHT22;3221;48.858;10.128;2023-06-22T12:23:55;27.70;99.90
6377;DHT22;3221;48.858;10.128;2023-06-22T12:26:22;27.70;99.80
6377;DHT22;3221;48.858;10.128;2023-06-22T12:28:49;27.80;99.70
6377;DHT22;3221;48.858;10.128;2023-06-22T12:31:17;27.70;99.30
6377;DHT22;3221;48.858;10.128;2023-06-22T12:33:44;27.70;99.10
6377;DHT22;3221;48.858;10.128;2023-06-22T12:36:11;27.70;99.20
6377;DHT22;3221;48.858;10.128;2023-06-22T12:38:38;27.60;99.40
6377;DHT22;3221;48.858;10.128;2023-06-22T12:41:04;27.40;98.50
6377;DHT22;3221;48.858;10.128;2023-06-22T12:43:31;27.30;99.60
6377;DHT22;3221;48.858;10.128;2023-06-22T12:45:58;27.40;99.90
6377;DHT22;3221;48.858;10.128;2023-06-22T12:48:26;27.50;99.70
6377;DHT22;3221;48.858;10.128;2023-06-22T12:50:54;27.40;99.80
6377;DHT22;3221;48.858;10.128;2023-06-22T12:53:21;27.40;99.70
6377;DHT22;3221;48.858;10.128;2023-06-22T12:55:50;27.40;99.40
6377;DHT22;3221;48.858;10.128;2023-06-22T12:58:17;27.40;99.70
6377;DHT22;3221;48.858;10.128;2023-06-22T13:00:43;27.40;99.90
6377;DHT22;3221;48.858;10.128;2023-06-22T13:03:10;27.60;99.90
6377;DHT22;3221;48.858;10.128;2023-06-22T13:05:37;27.60;99.50
6377;DHT22;3221;48.858;10.128;2023-06-22T13:08:05;27.60;99.90
6377;DHT22;3221;48.858;10.128;2023-06-22T13:10:32;27.70;99.70
6377;DHT22;3221;48.858;10.128;2023-06-22T13:12:59;27.90;99.60
6377;DHT22;3221;48.858;10.128;2023-06-22T13:15:28;27.90;99.50
6377;DHT22;3221;48.858;10.128;2023-06-22T13:17:55;27.70;99.60
6377;DHT22;3221;48.858;10.128;2023-06-22T13:20:22;27.70;99.00
6377;DHT22;3221;48.858;10.128;2023-06-22T13:22:49;27.80;99.90
6377;DHT22;3221;48.858;10.128;2023-06-22T13:25:16;27.80;99.90
6377;DHT22;3221;48.858;10.128;2023-06-22T13:27:46;27.70;99.90
6377;DHT22;3221;48.858;10.128;2023-06-22T13:30:13;27.90;99.60
6377;DHT22;3221;48.858;10.128;2023-06-22T13:32:57;27.90;99.90
6377;DHT22;3221;48.858;10.128;2023-06-22T13:35:41;27.80;99.60
6377;DHT22;3221;48.858;10.128;2023-06-22T13:38:29;27.70;99.50
6377;DHT22;3221;48.858;10.128;2023-06-22T13:41:14;27.60;99.90
6377;DHT22;3221;48.858;10.128;2023-06-22T13:43:58;27.40;99.90
6377;DHT22;3221;48.858;10.128;2023-06-22T13:46:43;27.30;99.90
6377;DHT22;3221;48.858;10.128;2023-06-22T13:49:27;27.40;99.90
6377;DHT22;3221;48.858;10.128;2023-06-22T13:52:11;27.50;99.90
6377;DHT22;3221;48.858;10.128;2023-06-22T13:54:39;27.40;99.90
6377;DHT22;3221;48.858;10.128;2023-06-22T13:57:06;27.40;99.90
6377;DHT22;3221;48.858;10.128;2023-06-22T13:59:33;27.40;99.90
6377;DHT22;3221;48.858;10.128;2023-06-22T14:02:00;27.60;99.90
6377;DHT22;3221;48.858;10.128;2023-06-22T14:04:27;27.70;99.90
6377;DHT22;3221;48.858;10.128;2023-06-22T14:06:55;27.70;99.90
6377;DHT22;3221;48.858;10.128;2023-06-22T14:09:23;27.70;99.90
6377;DHT22;3221;48.858;10.128;2023-06-22T14:11:50;27.80;99.90
6377;DHT22;3221;48.858;10.128;2023-06-22T14:14:17;27.80;99.90
6377;DHT22;3221;48.858;10.128;2023-06-22T14:16:43;27.60;99.90
6377;DHT22;3221;48.858;10.128;2023-06-22T14:19:10;27.50;99.90
6377;DHT22;3221;48.858;10.128;2023-06-22T14:21:37;27.60;99.90
6377;DHT22;3221;48.858;10.128;2023-06-22T14:24:04;27.60;99.90
6377;DHT22;3221;48.858;10.128;2023-06-22T14:26:31;27.60;99.90
6377;DHT22;3221;48.858;10.128;2023-06-22T14:28:58;27.60;99.90
6377;DHT22;3221;48.858;10.128;2023-06-22T14:31:25;27.60;99.90
6377;DHT22;3221;48.858;10.128;2023-06-22T14:33:52;27.60;99.90
6377;DHT22;3221;48.858;10.128;2023-06-22T14:36:19;27.50;99.90
6377;DHT22;3221;48.858;10.128;2023-06-22T14:38:46;27.60;99.90
6377;DHT22;3221;48.858;10.128;2023-06-22T14:41:13;27.70;99.90
6377;DHT22;3221;48.858;10.128;2023-06-22T14:43:45;27.70;99.90
6377;DHT22;3221;48.858;10.128;2023-06-22T14:46:18;27.60;99.90
6377;DHT22;3221;48.858;10.128;2023-06-22T14:48:46;27.60;99.90
6377;DHT22;3221;48.858;10.128;2023-06-22T14:51:13;27.80;99.90
6377;DHT22;3221;48.858;10.128;2023-06-22T14:53:45;27.80;99.90
6377;DHT22;3221;48.858;10.128;2023-06-22T14:56:12;27.90;99.90
6377;DHT22;3221;48.858;10.128;2023-06-22T14:58:41;28.10;99.90
6377;DHT22;3221;48.858;10.128;2023-06-22T15:01:13;28.30;99.90
6377;DHT22;3221;48.858;10.128;2023-06-22T15:03:40;28.20;99.80
6377;DHT22;3221;48.858;10.128;2023-06-22T15:06:08;28.30;99.80
6377;DHT22;3221;48.858;10.128;2023-06-22T15:08:40;28.30;99.50
6377;DHT22;3221;48.858;10.128;2023-06-22T15:11:07;28.30;99.70
6377;DHT22;3221;48.858;10.128;2023-06-22T15:13:35;28.30;99.30
6377;DHT22;3221;48.858;10.128;2023-06-22T15:16:04;28.20;98.50
6377;DHT22;3221;48.858;10.128;2023-06-22T15:18:32;28.20;99.00
6377;DHT22;3221;48.858;10.128;2023-06-22T15:21:02;28.30;98.60
6377;DHT22;3221;48.858;10.128;2023-06-22T15:23:30;28.30;98.40
6377;DHT22;3221;48.858;10.128;2023-06-22T15:25:59;28.40;98.80
6377;DHT22;3221;48.858;10.128;2023-06-22T15:28:25;28.50;96.90
6377;DHT22;3221;48.858;10.128;2023-06-22T15:30:52;28.50;97.70
6377;DHT22;3221;48.858;10.128;2023-06-22T15:33:20;28.40;97.40
6377;DHT22;3221;48.858;10.128;2023-06-22T15:35:47;28.30;97.40
6377;DHT22;3221;48.858;10.128;2023-06-22T15:38:14;28.40;97.30
6377;DHT22;3221;48.858;10.128;2023-06-22T15:40:41;28.50;96.40
6377;DHT22;3221;48.858;10.128;2023-06-22T15:43:11;28.60;96.60
6377;DHT22;3221;48.858;10.128;2023-06-22T15:45:41;28.60;97.10
6377;DHT22;3221;48.858;10.128;2023-06-22T15:48:08;28.60;97.00
6377;DHT22;3221;48.858;10.128;2023-06-22T15:50:35;28.50;96.20
6377;DHT22;3221;48.858;10.128;2023-06-22T15:53:02;28.50;96.30
6377;DHT22;3221;48.858;10.128;2023-06-22T15:55:29;28.40;96.20
6377;DHT22;3221;48.858;10.128;2023-06-22T15:57:58;28.30;96.40
6377;DHT22;3221;48.858;10.128;2023-06-22T16:00:26;28.20;97.00